KDFI

Details ICAO KDFI
Name DEFIANCE MEM
Region United States
Timezone America/New_York (UTC-5.0)
Plans Departing 0
Arriving 0
Stats Elevation 707 ft / 215 m (AMSL)
Location 41.337477° -84.428818°
Runways 1
Magnetic Variation 6.316° W
Sunrise 2017-12-18 13:00:05 UTC / 2017-12-18 08:00:05 Local
Sunset 2017-12-18 22:11:30 UTC / 2017-12-18 17:11:30 Local
Advertisement - Login to hide

Runways

ID Width Length Bearing (true) Bearing (mag) Surface Threshold Offset Overrun Length
12 72 ft / 22 m 4,185 ft / 1,275 m 115.19° 121.51° Asphalt 0 ft / 0 m 0 ft / 0 m
30 72 ft / 22 m 4,185 ft / 1,275 m 295.20° 301.52° Asphalt 0 ft / 0 m 0 ft / 0 m

Map

Weather


0- 5 10 15 20 25 30 35+ Temperature / ° C

Clouds and Precipitation
Forecast for 2017-12-19 00:00 UTC. Updated 2 hours ago

Ground ~20,000 ft ~40,000 ft Winds

METAR

KDFI 182053Z AUTO 22011G18KT 10SM BKN028 OVC055 08/04 A2990 RMK AO2 SLP130 T00780044 55010

TAF

Not found

Frequencies

Recorded 121.42 MHz ASOS
Approach 134.35 MHz TOLEDO APP/DEP
Unicom 122.70 MHz CTAF/UNICOM
Warning: Do not use this data for real-world aviation or navigation. No guarantee of current accuracy is given.